createdAt,value
2022-12-08T00:01:35.660Z,3.00
2022-12-08T00:05:01.817Z,3.02
2022-12-08T00:08:25.503Z,2.95
2022-12-08T00:11:31.192Z,2.95
2022-12-08T00:14:40.615Z,2.99
2022-12-08T00:17:46.023Z,2.89
2022-12-08T00:20:58.684Z,2.89
2022-12-08T00:24:07.045Z,2.95
2022-12-08T00:27:16.685Z,2.96
2022-12-08T00:30:22.374Z,2.91
2022-12-08T00:33:31.468Z,2.79
2022-12-08T00:36:38.091Z,2.85
2022-12-08T00:39:48.358Z,2.95
2022-12-08T00:42:53.915Z,2.97
2022-12-08T00:46:00.264Z,2.95
2022-12-08T00:49:06.883Z,2.93
2022-12-08T00:52:13.523Z,2.86
2022-12-08T00:55:21.558Z,2.89
2022-12-08T00:58:27.905Z,2.85
2022-12-08T01:01:34.033Z,2.68
2022-12-08T01:04:41.996Z,2.80
2022-12-08T01:07:49.155Z,2.78
2022-12-08T01:10:57.987Z,2.75
2022-12-08T01:14:03.790Z,2.74
2022-12-08T01:17:11.433Z,2.78
2022-12-08T01:20:17.091Z,2.82
2022-12-08T01:23:23.996Z,2.74
2022-12-08T01:26:32.121Z,2.57
2022-12-08T01:29:38.650Z,2.63
2022-12-08T01:32:44.161Z,2.63
2022-12-08T01:35:51.656Z,2.70
2022-12-08T01:39:00.561Z,2.73
2022-12-08T01:42:10.010Z,2.62
2022-12-08T01:45:25.333Z,2.62
2022-12-08T01:48:31.797Z,2.49
2022-12-08T01:51:48.684Z,2.54
2022-12-08T01:55:00.951Z,2.57
2022-12-08T01:58:19.706Z,2.60
2022-12-08T02:01:26.744Z,2.61
2022-12-08T02:04:32.396Z,2.61
2022-12-08T02:07:39.834Z,2.56
2022-12-08T02:10:47.093Z,2.44
2022-12-08T02:13:58.369Z,2.65
2022-12-08T02:17:23.834Z,2.74
2022-12-08T02:20:59.219Z,2.84
2022-12-08T02:24:23.433Z,2.81
2022-12-08T02:27:49.560Z,2.76
2022-12-08T02:31:20.652Z,2.76
2022-12-08T02:34:45.780Z,2.84
2022-12-08T02:38:06.559Z,2.75
2022-12-08T02:41:33.333Z,2.69
2022-12-08T02:44:48.818Z,2.53
2022-12-08T02:47:56.579Z,2.45
2022-12-08T02:51:04.644Z,2.45
2022-12-08T02:54:12.025Z,2.54
2022-12-08T02:57:41.200Z,2.50
2022-12-08T03:01:16.045Z,2.62
2022-12-08T03:04:41.188Z,2.70
2022-12-08T03:08:06.648Z,2.64
2022-12-08T03:11:23.141Z,2.57
2022-12-08T03:14:32.373Z,2.54
2022-12-08T03:17:44.231Z,2.48
2022-12-08T03:20:53.883Z,2.59
2022-12-08T03:24:08.823Z,2.75
2022-12-08T03:27:20.857Z,2.72
2022-12-08T03:30:26.448Z,2.78
2022-12-08T03:33:43.440Z,2.79
2022-12-08T03:36:49.287Z,2.87
2022-12-08T03:39:58.685Z,2.98
2022-12-08T03:43:04.546Z,3.01
2022-12-08T03:46:10.979Z,3.06
2022-12-08T03:49:16.625Z,3.05
2022-12-08T03:52:23.025Z,3.13
2022-12-08T03:55:31.103Z,3.09
2022-12-08T03:58:37.756Z,3.15
2022-12-08T04:01:43.219Z,3.24
2022-12-08T04:04:49.496Z,3.30
2022-12-08T04:08:01.347Z,3.33
2022-12-08T04:11:10.924Z,3.30
2022-12-08T04:14:16.639Z,3.32
2022-12-08T04:17:23.119Z,3.28
2022-12-08T04:20:28.621Z,3.25
2022-12-08T04:23:34.865Z,3.08
2022-12-08T04:26:42.952Z,2.99
2022-12-08T04:29:49.198Z,3.03
2022-12-08T04:32:57.093Z,3.00
2022-12-08T04:36:03.366Z,3.02
2022-12-08T04:39:22.595Z,3.00
2022-12-08T04:42:31.595Z,2.97
2022-12-08T04:45:37.289Z,2.99
2022-12-08T04:48:44.659Z,3.05
2022-12-08T04:51:50.165Z,3.15
2022-12-08T04:54:58.996Z,2.99
2022-12-08T04:58:07.310Z,2.94
2022-12-08T05:01:14.428Z,2.94
2022-12-08T05:04:20.051Z,2.91
2022-12-08T05:07:27.438Z,2.99
2022-12-08T05:10:33.052Z,2.89
2022-12-08T05:13:42.133Z,2.82
2022-12-08T05:16:48.673Z,2.80
2022-12-08T05:19:55.072Z,2.86
2022-12-08T05:23:00.654Z,2.79
2022-12-08T05:26:07.379Z,2.82
2022-12-08T05:29:15.464Z,2.89
2022-12-08T05:32:21.877Z,2.92
2022-12-08T05:35:27.329Z,2.98
2022-12-08T05:38:33.758Z,2.92
2022-12-08T05:41:39.209Z,2.89
2022-12-08T05:44:48.183Z,2.93
2022-12-08T05:47:55.589Z,2.97
2022-12-08T05:51:01.898Z,2.94
2022-12-08T05:54:07.641Z,2.88
2022-12-08T05:57:14.034Z,2.81
2022-12-08T06:00:24.827Z,2.52
2022-12-08T06:03:31.251Z,2.61
2022-12-08T06:06:38.993Z,2.72
2022-12-08T06:09:45.274Z,2.72
2022-12-08T06:12:50.781Z,2.69
2022-12-08T06:15:59.788Z,2.55
2022-12-08T06:19:05.212Z,2.44
2022-12-08T06:22:11.568Z,2.38
2022-12-08T06:25:17.014Z,2.46
2022-12-08T06:28:23.506Z,2.44
2022-12-08T06:31:31.666Z,2.50
2022-12-08T06:34:38.274Z,2.48
2022-12-08T06:37:43.809Z,2.42
2022-12-08T06:40:57.782Z,2.45
2022-12-08T06:44:03.303Z,2.55
2022-12-08T06:47:12.231Z,2.60
2022-12-08T06:50:18.009Z,2.74
2022-12-08T06:53:24.300Z,2.88
2022-12-08T06:56:30.315Z,2.90
2022-12-08T06:59:36.699Z,2.92
2022-12-08T07:02:45.906Z,2.89
2022-12-08T07:05:52.582Z,2.85
2022-12-08T07:08:58.128Z,2.85
2022-12-08T07:12:04.473Z,2.85
2022-12-08T07:15:12.395Z,2.80
2022-12-08T07:18:23.626Z,2.76
2022-12-08T07:21:29.166Z,2.70
2022-12-08T07:24:35.498Z,2.72
2022-12-08T07:27:40.974Z,2.81
2022-12-08T07:30:47.339Z,2.76
2022-12-08T07:33:57.167Z,2.77
2022-12-08T07:37:03.608Z,2.80
2022-12-08T07:40:12.856Z,2.75
2022-12-08T07:43:19.264Z,2.73
2022-12-08T07:46:27.495Z,2.79
2022-12-08T07:49:36.734Z,2.85
2022-12-08T07:52:42.219Z,2.86
2022-12-08T07:55:48.448Z,2.79
2022-12-08T07:58:54.137Z,2.82
2022-12-08T08:02:22.769Z,2.79
2022-12-08T08:05:28.673Z,2.89
2022-12-08T08:08:36.314Z,3.00
2022-12-08T08:11:41.791Z,2.97
2022-12-08T08:14:48.105Z,3.02
2022-12-08T08:17:54.287Z,3.03
2022-12-08T08:21:22.256Z,2.97
2022-12-08T08:24:28.766Z,2.84
2022-12-08T08:27:35.148Z,2.87
2022-12-08T08:30:40.750Z,2.99
2022-12-08T08:33:48.852Z,3.13
2022-12-08T08:36:57.016Z,3.19
2022-12-08T08:40:03.936Z,3.35
2022-12-08T08:43:34.299Z,3.47
2022-12-08T08:46:44.387Z,3.64
2022-12-08T08:49:49.994Z,3.79
2022-12-08T08:52:59.163Z,3.85
2022-12-08T08:56:05.256Z,4.04
2022-12-08T08:59:12.604Z,4.09
2022-12-08T09:02:22.145Z,4.13
2022-12-08T09:05:28.452Z,4.19
2022-12-08T09:08:36.482Z,4.18
2022-12-08T09:11:42.962Z,4.19
2022-12-08T09:14:48.651Z,4.18
2022-12-08T09:17:55.023Z,4.21
2022-12-08T09:21:06.411Z,4.34
2022-12-08T09:24:16.045Z,4.36
2022-12-08T09:27:21.853Z,4.44
2022-12-08T09:30:28.419Z,4.52
2022-12-08T09:33:34.211Z,4.66
2022-12-08T09:36:40.526Z,4.79
2022-12-08T09:39:49.483Z,4.82
2022-12-08T09:43:09.297Z,4.73
2022-12-08T09:46:21.099Z,4.58
2022-12-08T09:49:46.001Z,4.55
2022-12-08T09:53:05.036Z,4.71
2022-12-08T09:56:22.603Z,4.78
2022-12-08T09:59:34.893Z,4.73
2022-12-08T10:02:41.167Z,4.67
2022-12-08T10:05:58.890Z,4.57
2022-12-08T10:09:31.635Z,4.53
2022-12-08T10:12:54.033Z,4.42
2022-12-08T10:16:25.391Z,4.42
2022-12-08T10:19:38.114Z,4.44
2022-12-08T10:22:45.265Z,4.52
2022-12-08T10:25:56.941Z,4.47
2022-12-08T10:29:07.739Z,4.41
2022-12-08T10:32:22.947Z,4.36
2022-12-08T10:35:48.843Z,4.43
2022-12-08T10:38:54.414Z,4.50
2022-12-08T10:42:10.523Z,4.54
2022-12-08T10:45:29.547Z,4.56
2022-12-08T10:48:37.036Z,4.60
2022-12-08T10:51:45.296Z,4.66
2022-12-08T10:54:56.726Z,4.65
2022-12-08T10:58:02.290Z,4.55
2022-12-08T11:01:17.813Z,4.69
2022-12-08T11:04:38.375Z,4.77
2022-12-08T11:07:51.082Z,4.74
2022-12-08T11:10:56.988Z,4.68
2022-12-08T11:14:12.027Z,4.60
2022-12-08T11:17:29.790Z,4.47
2022-12-08T11:20:43.909Z,4.50
2022-12-08T11:23:53.316Z,4.40
2022-12-08T11:27:06.573Z,4.33
2022-12-08T11:30:21.484Z,4.33
2022-12-08T11:33:32.592Z,4.41
2022-12-08T11:36:41.109Z,4.40
2022-12-08T11:39:54.486Z,4.43
2022-12-08T11:43:17.511Z,4.45
2022-12-08T11:46:30.214Z,4.27
2022-12-08T11:49:44.373Z,4.25
2022-12-08T11:52:54.689Z,4.20
2022-12-08T11:56:09.588Z,4.22
2022-12-08T11:59:31.775Z,4.26
2022-12-08T12:02:49.165Z,4.24
2022-12-08T12:10:29.117Z,4.27
2022-12-08T12:14:05.432Z,4.27
2022-12-08T12:17:39.315Z,4.14
2022-12-08T12:21:00.078Z,4.21
2022-12-08T12:24:26.748Z,4.28
2022-12-08T12:27:43.830Z,4.16
2022-12-08T12:31:02.082Z,4.15
2022-12-08T12:34:19.312Z,4.07
2022-12-08T12:37:30.517Z,4.09
2022-12-08T12:40:45.457Z,4.27
2022-12-08T12:44:28.277Z,4.38
2022-12-08T12:47:56.688Z,4.20
2022-12-08T12:51:02.729Z,4.18
2022-12-08T12:54:25.960Z,4.19
2022-12-08T12:57:42.370Z,4.16
2022-12-08T13:00:49.920Z,4.17
2022-12-08T13:04:10.817Z,4.21
2022-12-08T13:07:25.641Z,4.01
2022-12-08T13:10:37.424Z,4.17
2022-12-08T13:14:03.371Z,4.27
2022-12-08T13:17:19.473Z,4.14
2022-12-08T13:20:29.118Z,4.20
2022-12-08T13:24:17.808Z,4.23
2022-12-08T13:27:37.882Z,4.30
2022-12-08T13:30:50.883Z,4.41
2022-12-08T13:38:48.896Z,4.47
2022-12-08T13:42:06.699Z,4.49
2022-12-08T13:45:59.210Z,4.49
2022-12-08T13:59:48.585Z,4.59
2022-12-08T14:03:02.430Z,4.60
2022-12-08T14:06:17.724Z,4.62
2022-12-08T14:09:28.214Z,4.57
2022-12-08T14:12:35.114Z,4.46
2022-12-08T14:15:43.240Z,4.41
2022-12-08T14:18:48.827Z,4.37
2022-12-08T14:22:01.962Z,4.44
2022-12-08T14:25:10.803Z,4.54
2022-12-08T14:28:17.179Z,4.52
2022-12-08T14:31:26.618Z,4.52
2022-12-08T14:34:39.786Z,4.57
2022-12-08T14:37:52.104Z,4.56
2022-12-08T14:41:08.879Z,4.54
2022-12-08T14:44:27.340Z,4.48
2022-12-08T14:47:36.359Z,4.45
2022-12-08T14:51:02.581Z,4.50
2022-12-08T14:54:18.148Z,4.51
2022-12-08T14:57:24.335Z,4.53
2022-12-08T15:00:32.028Z,4.45
2022-12-08T15:03:40.050Z,4.45
2022-12-08T15:06:56.407Z,4.36
2022-12-08T15:10:32.037Z,4.29
2022-12-08T15:13:38.345Z,4.09
2022-12-08T15:16:47.221Z,4.08
2022-12-08T15:19:59.291Z,4.15
2022-12-08T15:23:06.927Z,4.15
2022-12-08T15:26:25.268Z,4.22
2022-12-08T15:29:33.094Z,4.22
2022-12-08T15:32:39.400Z,4.26
2022-12-08T15:35:45.035Z,4.29
2022-12-08T15:38:51.435Z,4.27
2022-12-08T15:41:59.603Z,4.30
2022-12-08T15:45:06.571Z,4.29
2022-12-08T15:48:21.639Z,4.28
2022-12-08T15:51:27.932Z,4.29
2022-12-08T15:54:33.497Z,4.35
2022-12-08T15:58:31.216Z,4.33
2022-12-08T16:01:08.505Z,4.39
2022-12-08T16:05:06.385Z,4.37
2022-12-08T16:07:45.841Z,4.23
2022-12-08T16:11:34.475Z,4.08
2022-12-08T16:15:23.014Z,4.12
2022-12-08T16:17:45.909Z,4.00
2022-12-08T16:21:09.727Z,3.87
2022-12-08T16:24:18.583Z,3.87
2022-12-08T16:30:59.716Z,3.72
2022-12-08T16:34:05.447Z,3.56
2022-12-08T16:37:18.354Z,3.51
2022-12-08T16:40:24.221Z,3.54
2022-12-08T16:43:27.914Z,3.62
2022-12-08T16:46:37.654Z,3.70
2022-12-08T16:49:43.945Z,3.74
2022-12-08T16:52:53.048Z,3.81
2022-12-08T16:55:59.527Z,3.92
2022-12-08T16:59:05.594Z,3.96
2022-12-08T17:02:16.540Z,4.05
2022-12-08T17:05:25.140Z,4.15
2022-12-08T17:08:31.562Z,4.16
2022-12-08T17:11:42.973Z,4.21
2022-12-08T17:14:50.168Z,4.27
2022-12-08T17:17:59.708Z,4.28
2022-12-08T17:21:06.255Z,4.24
2022-12-08T17:24:14.604Z,4.16
2022-12-08T17:27:22.405Z,4.14
2022-12-08T17:30:27.938Z,4.08
2022-12-08T17:33:37.027Z,4.04
2022-12-08T17:36:43.048Z,4.03
2022-12-08T17:39:49.608Z,4.07
2022-12-08T17:42:55.114Z,4.00
2022-12-08T17:46:07.283Z,3.86
2022-12-08T17:49:21.832Z,3.75
2022-12-08T17:52:28.169Z,3.78
2022-12-08T17:55:33.643Z,3.73
2022-12-08T17:58:40.164Z,3.80
2022-12-08T18:01:46.235Z,3.87
2022-12-08T18:04:55.052Z,3.95
2022-12-08T18:08:01.453Z,4.01
2022-12-08T18:11:13.983Z,4.00
2022-12-08T18:14:20.155Z,3.97
2022-12-08T18:17:26.619Z,4.03
2022-12-08T18:20:35.018Z,4.01
2022-12-08T18:23:44.842Z,4.01
2022-12-08T18:26:52.427Z,3.88
2022-12-08T18:29:58.827Z,3.99
2022-12-08T18:33:07.237Z,3.95
2022-12-08T18:36:20.972Z,4.01
2022-12-08T18:39:30.226Z,4.15
2022-12-08T18:42:36.488Z,4.30
2022-12-08T18:45:42.560Z,4.32
2022-12-08T18:48:53.159Z,4.31
2022-12-08T18:52:01.124Z,4.27
2022-12-08T18:55:08.863Z,4.19
2022-12-08T18:58:14.541Z,4.11
2022-12-08T19:01:21.777Z,4.16
2022-12-08T19:04:29.661Z,4.19
2022-12-08T19:07:39.921Z,4.25
2022-12-08T19:10:45.671Z,4.37
2022-12-08T19:13:52.743Z,4.42
2022-12-08T19:16:58.540Z,4.43
2022-12-08T19:20:05.294Z,4.52
2022-12-08T19:23:15.309Z,4.57
2022-12-08T19:26:22.673Z,4.52
2022-12-08T19:29:28.139Z,4.38
2022-12-08T19:32:34.836Z,4.29
2022-12-08T19:35:40.429Z,4.24
2022-12-08T19:39:02.922Z,4.14
2022-12-08T19:42:30.341Z,4.24
2022-12-08T19:45:39.265Z,4.23
2022-12-08T19:48:44.739Z,4.29
2022-12-08T19:51:53.482Z,4.25
2022-12-08T19:55:01.604Z,4.37
2022-12-08T19:58:10.055Z,4.50
2022-12-08T20:01:17.129Z,4.51
2022-12-08T20:04:24.178Z,4.55
2022-12-08T20:07:29.702Z,4.66
2022-12-08T20:10:45.567Z,4.57
2022-12-08T20:13:51.246Z,4.58
2022-12-08T20:16:57.787Z,4.55
2022-12-08T20:20:07.071Z,4.58
2022-12-08T20:23:16.370Z,4.56
2022-12-08T20:26:26.089Z,4.59
2022-12-08T20:29:32.400Z,4.64
2022-12-08T20:32:38.094Z,4.64
2022-12-08T20:35:45.902Z,4.59
2022-12-08T20:38:54.605Z,4.59
2022-12-08T20:42:04.787Z,4.74
2022-12-08T20:45:11.787Z,4.75
2022-12-08T20:48:19.627Z,4.77
2022-12-08T20:51:31.418Z,4.75
2022-12-08T20:54:40.045Z,4.75
2022-12-08T20:57:48.291Z,4.67
2022-12-08T21:00:56.056Z,4.64
2022-12-08T21:04:02.120Z,4.59
2022-12-08T21:07:09.241Z,4.55
2022-12-08T21:10:14.996Z,4.54
2022-12-08T21:13:24.180Z,4.48
2022-12-08T21:16:29.856Z,4.55
2022-12-08T21:19:38.836Z,4.62
2022-12-08T21:22:44.699Z,4.75
2022-12-08T21:25:51.195Z,4.82
2022-12-08T21:29:01.189Z,4.83
2022-12-08T21:32:08.012Z,4.88
2022-12-08T21:35:14.586Z,4.95
2022-12-08T21:38:21.251Z,4.98
2022-12-08T21:41:39.866Z,4.94
2022-12-08T21:44:48.975Z,4.81
2022-12-08T21:47:54.948Z,4.77
2022-12-08T21:51:07.328Z,4.78
2022-12-08T21:54:18.590Z,4.68
2022-12-08T21:57:26.014Z,4.64
2022-12-08T22:00:34.624Z,4.60
2022-12-08T22:03:43.044Z,4.56
2022-12-08T22:06:49.077Z,4.48
2022-12-08T22:09:55.801Z,4.32
2022-12-08T22:13:01.750Z,4.29
2022-12-08T22:16:16.971Z,4.23
2022-12-08T22:19:24.763Z,4.33
2022-12-08T22:22:31.379Z,4.45
2022-12-08T22:25:36.989Z,4.50
2022-12-08T22:28:45.690Z,4.64
2022-12-08T22:31:54.076Z,4.77
2022-12-08T22:35:00.799Z,4.87
2022-12-08T22:38:06.362Z,4.91
2022-12-08T22:41:13.474Z,4.95
2022-12-08T22:44:19.035Z,4.92
2022-12-08T22:47:28.086Z,4.78
2022-12-08T22:50:33.583Z,4.67
2022-12-08T22:53:40.703Z,4.64
2022-12-08T22:56:46.314Z,4.68
2022-12-08T22:59:52.727Z,4.77
2022-12-08T23:03:00.878Z,4.81
2022-12-08T23:06:15.725Z,4.81
2022-12-08T23:09:21.399Z,4.72
2022-12-08T23:12:27.821Z,4.68
2022-12-08T23:15:33.539Z,4.70
2022-12-08T23:18:45.917Z,4.60
2022-12-08T23:21:51.673Z,4.39
2022-12-08T23:24:58.219Z,4.29
2022-12-08T23:28:03.832Z,4.20
2022-12-08T23:31:11.139Z,4.17
2022-12-08T23:34:19.498Z,4.10
2022-12-08T23:37:25.951Z,4.00
2022-12-08T23:40:31.492Z,4.02
2022-12-08T23:43:38.736Z,4.03
2022-12-08T23:46:44.373Z,4.08
2022-12-08T23:49:53.465Z,4.03
2022-12-08T23:52:58.977Z,3.88
2022-12-08T23:56:09.595Z,3.85
2022-12-08T23:59:15.420Z,3.72
